sensor_id;sensor_type;location;lat;lon;timestamp;temperature;humidity
50067;DHT22;35952;52.524;13.340;2024-01-25T00:01:47;8.80;99.90
50067;DHT22;35952;52.524;13.340;2024-01-25T00:04:13;8.80;99.90
50067;DHT22;35952;52.524;13.340;2024-01-25T00:06:38;8.80;99.90
50067;DHT22;35952;52.524;13.340;2024-01-25T00:09:04;8.80;99.90
50067;DHT22;35952;52.524;13.340;2024-01-25T00:11:29;8.80;99.90
50067;DHT22;35952;52.524;13.340;2024-01-25T00:13:57;8.80;99.90
50067;DHT22;35952;52.524;13.340;2024-01-25T00:16:23;8.80;99.90
50067;DHT22;35952;52.524;13.340;2024-01-25T00:18:48;8.70;99.90
50067;DHT22;35952;52.524;13.340;2024-01-25T00:21:14;8.70;99.90
50067;DHT22;35952;52.524;13.340;2024-01-25T00:23:39;8.70;99.90
50067;DHT22;35952;52.524;13.340;2024-01-25T00:26:05;8.70;99.90
50067;DHT22;35952;52.524;13.340;2024-01-25T00:28:30;8.70;99.90
50067;DHT22;35952;52.524;13.340;2024-01-25T00:30:56;8.70;99.90
50067;DHT22;35952;52.524;13.340;2024-01-25T00:33:21;8.70;99.90
50067;DHT22;35952;52.524;13.340;2024-01-25T00:35:47;8.70;99.90
50067;DHT22;35952;52.524;13.340;2024-01-25T00:38:13;8.60;99.90
50067;DHT22;35952;52.524;13.340;2024-01-25T00:40:39;8.60;99.90
50067;DHT22;35952;52.524;13.340;2024-01-25T00:43:05;8.60;99.90
50067;DHT22;35952;52.524;13.340;2024-01-25T00:45:31;8.70;99.90
50067;DHT22;35952;52.524;13.340;2024-01-25T00:47:57;8.70;99.90
50067;DHT22;35952;52.524;13.340;2024-01-25T00:50:23;8.70;99.90
50067;DHT22;35952;52.524;13.340;2024-01-25T00:52:51;8.70;99.90
50067;DHT22;35952;52.524;13.340;2024-01-25T00:55:17;8.70;99.90
50067;DHT22;35952;52.524;13.340;2024-01-25T00:57:43;8.70;99.90
50067;DHT22;35952;52.524;13.340;2024-01-25T01:00:09;8.70;99.90
50067;DHT22;35952;52.524;13.340;2024-01-25T01:02:39;8.80;99.90
50067;DHT22;35952;52.524;13.340;2024-01-25T01:05:05;8.70;99.90
50067;DHT22;35952;52.524;13.340;2024-01-25T01:07:31;8.70;99.90
50067;DHT22;35952;52.524;13.340;2024-01-25T01:09:56;8.70;99.90
50067;DHT22;35952;52.524;13.340;2024-01-25T01:12:22;8.70;99.90
50067;DHT22;35952;52.524;13.340;2024-01-25T01:14:47;8.80;99.90
50067;DHT22;35952;52.524;13.340;2024-01-25T01:17:13;8.70;99.90
50067;DHT22;35952;52.524;13.340;2024-01-25T01:19:39;8.70;99.90
50067;DHT22;35952;52.524;13.340;2024-01-25T01:22:04;8.70;99.90
50067;DHT22;35952;52.524;13.340;2024-01-25T01:24:30;8.70;99.90
50067;DHT22;35952;52.524;13.340;2024-01-25T01:26:55;8.70;99.90
50067;DHT22;35952;52.524;13.340;2024-01-25T01:29:21;8.70;99.90
50067;DHT22;35952;52.524;13.340;2024-01-25T01:31:46;8.80;99.90
50067;DHT22;35952;52.524;13.340;2024-01-25T01:34:12;8.70;99.90
50067;DHT22;35952;52.524;13.340;2024-01-25T01:36:38;8.70;99.90
50067;DHT22;35952;52.524;13.340;2024-01-25T01:39:04;8.70;99.90
50067;DHT22;35952;52.524;13.340;2024-01-25T01:41:31;8.70;99.90
50067;DHT22;35952;52.524;13.340;2024-01-25T01:43:57;8.70;99.90
50067;DHT22;35952;52.524;13.340;2024-01-25T01:46:36;8.70;99.90
50067;DHT22;35952;52.524;13.340;2024-01-25T01:49:06;8.70;99.90
50067;DHT22;35952;52.524;13.340;2024-01-25T01:51:32;8.70;99.90
50067;DHT22;35952;52.524;13.340;2024-01-25T01:54:00;8.70;99.90
50067;DHT22;35952;52.524;13.340;2024-01-25T01:56:27;8.70;99.90
50067;DHT22;35952;52.524;13.340;2024-01-25T01:58:58;8.70;99.90
50067;DHT22;35952;52.524;13.340;2024-01-25T02:01:24;8.70;99.90
50067;DHT22;35952;52.524;13.340;2024-01-25T02:03:51;8.60;99.90
50067;DHT22;35952;52.524;13.340;2024-01-25T02:06:16;8.70;99.90
50067;DHT22;35952;52.524;13.340;2024-01-25T02:08:42;8.70;99.90
50067;DHT22;35952;52.524;13.340;2024-01-25T02:11:08;8.70;99.90
50067;DHT22;35952;52.524;13.340;2024-01-25T02:13:36;8.70;99.90
50067;DHT22;35952;52.524;13.340;2024-01-25T02:16:01;8.60;99.90
50067;DHT22;35952;52.524;13.340;2024-01-25T02:18:27;8.60;99.90
50067;DHT22;35952;52.524;13.340;2024-01-25T02:20:53;8.60;99.90
50067;DHT22;35952;52.524;13.340;2024-01-25T02:23:18;8.60;99.90
50067;DHT22;35952;52.524;13.340;2024-01-25T02:25:44;8.60;99.90
50067;DHT22;35952;52.524;13.340;2024-01-25T02:28:09;8.60;99.90
50067;DHT22;35952;52.524;13.340;2024-01-25T02:30:35;8.60;99.90
50067;DHT22;35952;52.524;13.340;2024-01-25T02:33:00;8.60;99.90
50067;DHT22;35952;52.524;13.340;2024-01-25T02:35:26;8.60;99.90
50067;DHT22;35952;52.524;13.340;2024-01-25T02:37:52;8.60;99.90
50067;DHT22;35952;52.524;13.340;2024-01-25T02:40:17;8.60;99.90
50067;DHT22;35952;52.524;13.340;2024-01-25T02:42:43;8.50;99.90
50067;DHT22;35952;52.524;13.340;2024-01-25T02:45:09;8.50;99.90
50067;DHT22;35952;52.524;13.340;2024-01-25T02:47:34;8.50;99.90
50067;DHT22;35952;52.524;13.340;2024-01-25T02:50:00;8.50;99.90
50067;DHT22;35952;52.524;13.340;2024-01-25T02:52:26;8.40;99.90
50067;DHT22;35952;52.524;13.340;2024-01-25T02:54:51;8.40;99.90
50067;DHT22;35952;52.524;13.340;2024-01-25T02:57:17;8.40;99.90
50067;DHT22;35952;52.524;13.340;2024-01-25T02:59:43;8.40;99.90
50067;DHT22;35952;52.524;13.340;2024-01-25T03:02:09;8.50;99.90
50067;DHT22;35952;52.524;13.340;2024-01-25T03:04:34;8.40;99.90
50067;DHT22;35952;52.524;13.340;2024-01-25T03:06:59;8.40;99.90
50067;DHT22;35952;52.524;13.340;2024-01-25T03:09:25;8.40;99.90
50067;DHT22;35952;52.524;13.340;2024-01-25T03:11:51;8.40;99.90
50067;DHT22;35952;52.524;13.340;2024-01-25T03:14:16;8.40;99.90
50067;DHT22;35952;52.524;13.340;2024-01-25T03:16:42;8.40;99.90
50067;DHT22;35952;52.524;13.340;2024-01-25T03:19:08;8.40;99.90
50067;DHT22;35952;52.524;13.340;2024-01-25T03:21:34;8.40;99.90
50067;DHT22;35952;52.524;13.340;2024-01-25T03:23:59;8.40;99.90
50067;DHT22;35952;52.524;13.340;2024-01-25T03:26:27;8.40;99.90
50067;DHT22;35952;52.524;13.340;2024-01-25T03:28:53;8.40;99.90
50067;DHT22;35952;52.524;13.340;2024-01-25T03:31:18;8.40;99.90
50067;DHT22;35952;52.524;13.340;2024-01-25T03:33:44;8.40;99.90
50067;DHT22;35952;52.524;13.340;2024-01-25T03:36:13;8.40;99.90
50067;DHT22;35952;52.524;13.340;2024-01-25T03:38:38;8.40;99.90
50067;DHT22;35952;52.524;13.340;2024-01-25T03:41:04;8.40;99.90
50067;DHT22;35952;52.524;13.340;2024-01-25T03:43:29;8.30;99.90
50067;DHT22;35952;52.524;13.340;2024-01-25T03:45:55;8.30;99.90
50067;DHT22;35952;52.524;13.340;2024-01-25T03:48:21;8.30;99.90
50067;DHT22;35952;52.524;13.340;2024-01-25T03:50:47;8.40;99.90
50067;DHT22;35952;52.524;13.340;2024-01-25T03:53:13;8.40;99.90
50067;DHT22;35952;52.524;13.340;2024-01-25T03:55:38;8.30;99.90
50067;DHT22;35952;52.524;13.340;2024-01-25T03:58:04;8.30;99.90
50067;DHT22;35952;52.524;13.340;2024-01-25T04:00:29;8.30;99.90
50067;DHT22;35952;52.524;13.340;2024-01-25T04:02:56;8.30;99.90
50067;DHT22;35952;52.524;13.340;2024-01-25T04:05:22;8.30;99.90
50067;DHT22;35952;52.524;13.340;2024-01-25T04:07:47;8.20;99.90
50067;DHT22;35952;52.524;13.340;2024-01-25T04:10:13;8.30;99.90
50067;DHT22;35952;52.524;13.340;2024-01-25T04:12:38;8.30;99.90
50067;DHT22;35952;52.524;13.340;2024-01-25T04:15:05;8.30;99.90
50067;DHT22;35952;52.524;13.340;2024-01-25T04:17:30;8.30;99.90
50067;DHT22;35952;52.524;13.340;2024-01-25T04:19:56;8.30;99.90
50067;DHT22;35952;52.524;13.340;2024-01-25T04:22:22;8.30;99.90
50067;DHT22;35952;52.524;13.340;2024-01-25T04:24:47;8.30;99.90
50067;DHT22;35952;52.524;13.340;2024-01-25T04:27:14;8.30;99.90
50067;DHT22;35952;52.524;13.340;2024-01-25T04:29:40;8.30;99.90
50067;DHT22;35952;52.524;13.340;2024-01-25T04:32:09;8.30;99.90
50067;DHT22;35952;52.524;13.340;2024-01-25T04:34:35;8.30;99.90
50067;DHT22;35952;52.524;13.340;2024-01-25T04:37:01;8.30;99.90
50067;DHT22;35952;52.524;13.340;2024-01-25T04:39:27;8.20;99.90
50067;DHT22;35952;52.524;13.340;2024-01-25T04:41:52;8.20;99.90
50067;DHT22;35952;52.524;13.340;2024-01-25T04:44:18;8.20;99.90
50067;DHT22;35952;52.524;13.340;2024-01-25T04:46:44;8.20;99.90
50067;DHT22;35952;52.524;13.340;2024-01-25T04:49:10;8.20;99.90
50067;DHT22;35952;52.524;13.340;2024-01-25T04:51:36;8.20;99.90
50067;DHT22;35952;52.524;13.340;2024-01-25T04:54:02;8.20;99.90
50067;DHT22;35952;52.524;13.340;2024-01-25T04:56:28;8.20;99.90
50067;DHT22;35952;52.524;13.340;2024-01-25T04:58:53;8.20;99.90
50067;DHT22;35952;52.524;13.340;2024-01-25T05:01:19;8.20;99.90
50067;DHT22;35952;52.524;13.340;2024-01-25T05:03:44;8.20;99.90
50067;DHT22;35952;52.524;13.340;2024-01-25T05:06:10;8.20;99.90
50067;DHT22;35952;52.524;13.340;2024-01-25T05:08:36;8.20;99.90
50067;DHT22;35952;52.524;13.340;2024-01-25T05:11:01;8.20;99.90
50067;DHT22;35952;52.524;13.340;2024-01-25T05:13:26;8.20;99.90
50067;DHT22;35952;52.524;13.340;2024-01-25T05:15:52;8.20;99.90
50067;DHT22;35952;52.524;13.340;2024-01-25T05:18:18;8.20;99.90
50067;DHT22;35952;52.524;13.340;2024-01-25T05:20:43;8.20;99.90
50067;DHT22;35952;52.524;13.340;2024-01-25T05:23:12;8.20;99.90
50067;DHT22;35952;52.524;13.340;2024-01-25T05:25:41;8.10;99.90
50067;DHT22;35952;52.524;13.340;2024-01-25T05:28:07;8.10;99.90
50067;DHT22;35952;52.524;13.340;2024-01-25T05:30:32;8.20;99.90
50067;DHT22;35952;52.524;13.340;2024-01-25T05:32:58;8.20;99.90
50067;DHT22;35952;52.524;13.340;2024-01-25T05:35:24;8.10;99.90
50067;DHT22;35952;52.524;13.340;2024-01-25T05:37:49;8.20;99.90
50067;DHT22;35952;52.524;13.340;2024-01-25T05:40:15;8.10;99.90
50067;DHT22;35952;52.524;13.340;2024-01-25T05:42:40;8.10;99.90
50067;DHT22;35952;52.524;13.340;2024-01-25T05:45:06;8.20;99.90
50067;DHT22;35952;52.524;13.340;2024-01-25T05:47:33;8.20;99.90
50067;DHT22;35952;52.524;13.340;2024-01-25T05:49:59;8.30;99.90
50067;DHT22;35952;52.524;13.340;2024-01-25T05:52:25;8.20;99.90
50067;DHT22;35952;52.524;13.340;2024-01-25T05:54:51;8.30;99.90
50067;DHT22;35952;52.524;13.340;2024-01-25T05:57:17;8.20;99.90
50067;DHT22;35952;52.524;13.340;2024-01-25T05:59:42;8.20;99.90
50067;DHT22;35952;52.524;13.340;2024-01-25T06:02:08;8.20;99.90
50067;DHT22;35952;52.524;13.340;2024-01-25T06:04:34;8.20;99.90
50067;DHT22;35952;52.524;13.340;2024-01-25T06:07:00;8.20;99.90
50067;DHT22;35952;52.524;13.340;2024-01-25T06:09:25;8.20;99.90
50067;DHT22;35952;52.524;13.340;2024-01-25T06:11:51;8.20;99.90
50067;DHT22;35952;52.524;13.340;2024-01-25T06:14:17;8.20;99.90
50067;DHT22;35952;52.524;13.340;2024-01-25T06:16:43;8.20;99.90
50067;DHT22;35952;52.524;13.340;2024-01-25T06:19:08;8.20;99.90
50067;DHT22;35952;52.524;13.340;2024-01-25T06:21:34;8.20;99.90
50067;DHT22;35952;52.524;13.340;2024-01-25T06:24:01;8.20;99.90
50067;DHT22;35952;52.524;13.340;2024-01-25T06:26:27;8.20;99.90
50067;DHT22;35952;52.524;13.340;2024-01-25T06:28:52;8.20;99.90
50067;DHT22;35952;52.524;13.340;2024-01-25T06:31:18;8.20;99.90
50067;DHT22;35952;52.524;13.340;2024-01-25T06:33:43;8.20;99.90
50067;DHT22;35952;52.524;13.340;2024-01-25T06:36:12;8.20;99.90
50067;DHT22;35952;52.524;13.340;2024-01-25T06:38:40;8.20;99.90
50067;DHT22;35952;52.524;13.340;2024-01-25T06:41:06;8.20;99.90
50067;DHT22;35952;52.524;13.340;2024-01-25T06:43:31;8.20;99.90
50067;DHT22;35952;52.524;13.340;2024-01-25T06:45:57;8.20;99.90
50067;DHT22;35952;52.524;13.340;2024-01-25T06:48:22;8.20;99.90
50067;DHT22;35952;52.524;13.340;2024-01-25T06:50:48;8.20;99.90
50067;DHT22;35952;52.524;13.340;2024-01-25T06:53:16;8.20;99.90
50067;DHT22;35952;52.524;13.340;2024-01-25T06:55:41;8.20;99.90
50067;DHT22;35952;52.524;13.340;2024-01-25T06:58:07;8.20;99.90
50067;DHT22;35952;52.524;13.340;2024-01-25T07:00:32;8.20;99.90
50067;DHT22;35952;52.524;13.340;2024-01-25T07:02:58;8.20;99.90
50067;DHT22;35952;52.524;13.340;2024-01-25T07:05:23;8.20;99.90
50067;DHT22;35952;52.524;13.340;2024-01-25T07:07:49;8.20;99.90
50067;DHT22;35952;52.524;13.340;2024-01-25T07:10:15;8.30;99.90
50067;DHT22;35952;52.524;13.340;2024-01-25T07:12:40;8.30;99.90
50067;DHT22;35952;52.524;13.340;2024-01-25T07:15:06;8.30;99.90
50067;DHT22;35952;52.524;13.340;2024-01-25T07:17:32;8.30;99.90
50067;DHT22;35952;52.524;13.340;2024-01-25T07:19:57;8.30;99.90
50067;DHT22;35952;52.524;13.340;2024-01-25T07:22:23;8.30;99.90
50067;DHT22;35952;52.524;13.340;2024-01-25T07:24:48;8.30;99.90
50067;DHT22;35952;52.524;13.340;2024-01-25T07:27:14;8.30;99.90
50067;DHT22;35952;52.524;13.340;2024-01-25T07:29:40;8.30;99.90
50067;DHT22;35952;52.524;13.340;2024-01-25T07:32:05;8.30;99.90
50067;DHT22;35952;52.524;13.340;2024-01-25T07:34:31;8.30;99.90
50067;DHT22;35952;52.524;13.340;2024-01-25T07:36:57;8.30;99.90
50067;DHT22;35952;52.524;13.340;2024-01-25T07:39:22;8.30;99.90
50067;DHT22;35952;52.524;13.340;2024-01-25T07:41:48;8.30;99.90
50067;DHT22;35952;52.524;13.340;2024-01-25T07:44:14;8.30;99.90
50067;DHT22;35952;52.524;13.340;2024-01-25T07:46:39;8.30;99.90
50067;DHT22;35952;52.524;13.340;2024-01-25T07:49:05;8.30;99.90
50067;DHT22;35952;52.524;13.340;2024-01-25T07:51:30;8.30;99.90
50067;DHT22;35952;52.524;13.340;2024-01-25T07:53:56;8.30;99.90
50067;DHT22;35952;52.524;13.340;2024-01-25T07:56:21;8.30;99.90
50067;DHT22;35952;52.524;13.340;2024-01-25T07:58:48;8.30;99.90
50067;DHT22;35952;52.524;13.340;2024-01-25T08:01:17;8.30;99.90
50067;DHT22;35952;52.524;13.340;2024-01-25T08:03:43;8.20;99.90
50067;DHT22;35952;52.524;13.340;2024-01-25T08:06:08;8.30;99.90
50067;DHT22;35952;52.524;13.340;2024-01-25T08:08:34;8.30;99.90
50067;DHT22;35952;52.524;13.340;2024-01-25T08:11:00;8.30;99.90
50067;DHT22;35952;52.524;13.340;2024-01-25T08:13:25;8.30;99.90
50067;DHT22;35952;52.524;13.340;2024-01-25T08:15:53;8.30;99.90
50067;DHT22;35952;52.524;13.340;2024-01-25T08:18:19;8.40;99.90
50067;DHT22;35952;52.524;13.340;2024-01-25T08:20:44;8.30;99.90
50067;DHT22;35952;52.524;13.340;2024-01-25T08:23:10;8.40;99.90
50067;DHT22;35952;52.524;13.340;2024-01-25T08:25:36;8.30;99.90
50067;DHT22;35952;52.524;13.340;2024-01-25T08:28:02;8.30;99.90
50067;DHT22;35952;52.524;13.340;2024-01-25T08:30:28;8.20;99.90
50067;DHT22;35952;52.524;13.340;2024-01-25T08:32:53;8.20;99.90
50067;DHT22;35952;52.524;13.340;2024-01-25T08:35:19;8.30;99.90
50067;DHT22;35952;52.524;13.340;2024-01-25T08:37:44;8.30;99.90
50067;DHT22;35952;52.524;13.340;2024-01-25T08:40:10;8.40;99.90
50067;DHT22;35952;52.524;13.340;2024-01-25T08:42:36;8.40;99.90
50067;DHT22;35952;52.524;13.340;2024-01-25T08:45:02;8.40;99.90
50067;DHT22;35952;52.524;13.340;2024-01-25T08:47:27;8.40;99.90
50067;DHT22;35952;52.524;13.340;2024-01-25T08:49:53;8.40;99.90
50067;DHT22;35952;52.524;13.340;2024-01-25T08:52:18;8.40;99.90
50067;DHT22;35952;52.524;13.340;2024-01-25T08:54:44;8.50;99.90
50067;DHT22;35952;52.524;13.340;2024-01-25T08:57:09;8.50;99.90
50067;DHT22;35952;52.524;13.340;2024-01-25T08:59:35;8.40;99.90
50067;DHT22;35952;52.524;13.340;2024-01-25T09:02:05;8.40;99.90
50067;DHT22;35952;52.524;13.340;2024-01-25T09:04:32;8.50;99.90
50067;DHT22;35952;52.524;13.340;2024-01-25T09:06:58;8.50;99.90
50067;DHT22;35952;52.524;13.340;2024-01-25T09:09:23;8.50;99.90
50067;DHT22;35952;52.524;13.340;2024-01-25T09:11:49;8.60;99.90
50067;DHT22;35952;52.524;13.340;2024-01-25T09:14:15;8.50;99.90
50067;DHT22;35952;52.524;13.340;2024-01-25T09:16:40;8.50;99.90
50067;DHT22;35952;52.524;13.340;2024-01-25T09:19:06;8.50;99.90
50067;DHT22;35952;52.524;13.340;2024-01-25T09:21:32;8.50;99.90
50067;DHT22;35952;52.524;13.340;2024-01-25T09:23:58;8.40;99.90
50067;DHT22;35952;52.524;13.340;2024-01-25T09:26:25;8.40;99.90
50067;DHT22;35952;52.524;13.340;2024-01-25T09:28:50;8.40;99.90
50067;DHT22;35952;52.524;13.340;2024-01-25T09:31:16;8.40;99.90
50067;DHT22;35952;52.524;13.340;2024-01-25T09:33:41;8.50;99.90
50067;DHT22;35952;52.524;13.340;2024-01-25T09:36:07;8.50;99.90
50067;DHT22;35952;52.524;13.340;2024-01-25T09:38:33;8.50;99.90
50067;DHT22;35952;52.524;13.340;2024-01-25T09:40:59;8.50;99.90
50067;DHT22;35952;52.524;13.340;2024-01-25T09:43:26;8.50;99.90
50067;DHT22;35952;52.524;13.340;2024-01-25T09:45:55;8.50;99.90
50067;DHT22;35952;52.524;13.340;2024-01-25T09:48:20;8.50;99.90
50067;DHT22;35952;52.524;13.340;2024-01-25T09:50:47;8.50;99.90
50067;DHT22;35952;52.524;13.340;2024-01-25T09:53:23;8.50;99.90
50067;DHT22;35952;52.524;13.340;2024-01-25T09:56:03;8.50;99.90
50067;DHT22;35952;52.524;13.340;2024-01-25T09:58:40;8.50;99.90
50067;DHT22;35952;52.524;13.340;2024-01-25T10:01:12;8.50;99.90
50067;DHT22;35952;52.524;13.340;2024-01-25T10:03:38;8.50;99.90
50067;DHT22;35952;52.524;13.340;2024-01-25T10:06:05;8.50;99.90
50067;DHT22;35952;52.524;13.340;2024-01-25T10:08:31;8.50;99.90
50067;DHT22;35952;52.524;13.340;2024-01-25T10:10:57;8.60;99.90
50067;DHT22;35952;52.524;13.340;2024-01-25T10:13:22;8.60;99.90
50067;DHT22;35952;52.524;13.340;2024-01-25T10:15:48;8.60;99.90
50067;DHT22;35952;52.524;13.340;2024-01-25T10:18:14;8.60;99.90
50067;DHT22;35952;52.524;13.340;2024-01-25T10:20:42;8.60;99.90
50067;DHT22;35952;52.524;13.340;2024-01-25T10:23:08;8.60;99.90
50067;DHT22;35952;52.524;13.340;2024-01-25T10:25:35;8.60;99.90
50067;DHT22;35952;52.524;13.340;2024-01-25T10:28:01;8.70;99.90
50067;DHT22;35952;52.524;13.340;2024-01-25T10:30:27;8.80;99.90
50067;DHT22;35952;52.524;13.340;2024-01-25T10:32:55;8.80;99.90
50067;DHT22;35952;52.524;13.340;2024-01-25T10:35:22;8.80;99.90
50067;DHT22;35952;52.524;13.340;2024-01-25T10:37:48;8.80;99.90
50067;DHT22;35952;52.524;13.340;2024-01-25T10:40:15;8.90;99.90
50067;DHT22;35952;52.524;13.340;2024-01-25T10:42:41;9.00;99.90
50067;DHT22;35952;52.524;13.340;2024-01-25T10:45:07;9.00;99.90
50067;DHT22;35952;52.524;13.340;2024-01-25T10:47:33;9.10;99.90
50067;DHT22;35952;52.524;13.340;2024-01-25T10:50:01;9.10;99.90
50067;DHT22;35952;52.524;13.340;2024-01-25T10:52:28;9.00;99.90
50067;DHT22;35952;52.524;13.340;2024-01-25T10:54:54;9.00;99.90
50067;DHT22;35952;52.524;13.340;2024-01-25T10:57:20;9.00;99.90
50067;DHT22;35952;52.524;13.340;2024-01-25T10:59:46;9.10;99.90
50067;DHT22;35952;52.524;13.340;2024-01-25T11:02:12;9.10;99.90
50067;DHT22;35952;52.524;13.340;2024-01-25T11:04:37;9.20;99.90
50067;DHT22;35952;52.524;13.340;2024-01-25T11:07:09;9.20;99.90
50067;DHT22;35952;52.524;13.340;2024-01-25T11:09:35;9.10;99.90
50067;DHT22;35952;52.524;13.340;2024-01-25T11:12:12;9.20;99.90
50067;DHT22;35952;52.524;13.340;2024-01-25T11:14:38;9.10;99.90
50067;DHT22;35952;52.524;13.340;2024-01-25T11:17:20;9.10;99.90
50067;DHT22;35952;52.524;13.340;2024-01-25T11:19:46;9.10;99.90
50067;DHT22;35952;52.524;13.340;2024-01-25T11:22:11;9.10;99.90
50067;DHT22;35952;52.524;13.340;2024-01-25T11:24:38;9.00;99.90
50067;DHT22;35952;52.524;13.340;2024-01-25T11:27:05;9.10;99.90
50067;DHT22;35952;52.524;13.340;2024-01-25T11:29:31;9.10;99.90
50067;DHT22;35952;52.524;13.340;2024-01-25T11:31:57;9.00;99.90
50067;DHT22;35952;52.524;13.340;2024-01-25T11:34:23;9.00;99.90
50067;DHT22;35952;52.524;13.340;2024-01-25T11:36:49;9.00;99.90
50067;DHT22;35952;52.524;13.340;2024-01-25T11:39:15;9.10;99.90
50067;DHT22;35952;52.524;13.340;2024-01-25T11:41:45;9.10;99.90
50067;DHT22;35952;52.524;13.340;2024-01-25T11:44:13;9.20;99.90
50067;DHT22;35952;52.524;13.340;2024-01-25T11:46:39;9.20;99.90
50067;DHT22;35952;52.524;13.340;2024-01-25T11:49:05;9.20;99.90
50067;DHT22;35952;52.524;13.340;2024-01-25T11:51:32;9.20;99.90
50067;DHT22;35952;52.524;13.340;2024-01-25T11:53:58;9.30;99.90
50067;DHT22;35952;52.524;13.340;2024-01-25T11:56:27;9.30;99.90
50067;DHT22;35952;52.524;13.340;2024-01-25T11:58:54;9.40;99.90
50067;DHT22;35952;52.524;13.340;2024-01-25T12:01:22;9.40;99.90
50067;DHT22;35952;52.524;13.340;2024-01-25T12:03:48;9.40;99.90
50067;DHT22;35952;52.524;13.340;2024-01-25T12:06:14;9.30;99.90
50067;DHT22;35952;52.524;13.340;2024-01-25T12:08:40;9.30;99.90
50067;DHT22;35952;52.524;13.340;2024-01-25T12:11:07;9.40;99.90
50067;DHT22;35952;52.524;13.340;2024-01-25T12:13:42;9.30;99.90
50067;DHT22;35952;52.524;13.340;2024-01-25T12:16:09;9.30;99.90
50067;DHT22;35952;52.524;13.340;2024-01-25T12:18:37;9.30;99.90
50067;DHT22;35952;52.524;13.340;2024-01-25T12:21:03;9.40;99.90
50067;DHT22;35952;52.524;13.340;2024-01-25T12:23:36;9.40;99.90
50067;DHT22;35952;52.524;13.340;2024-01-25T12:26:04;9.30;99.90
50067;DHT22;35952;52.524;13.340;2024-01-25T12:28:30;9.40;99.90
50067;DHT22;35952;52.524;13.340;2024-01-25T12:30:59;9.40;99.90
50067;DHT22;35952;52.524;13.340;2024-01-25T12:33:25;9.50;99.90
50067;DHT22;35952;52.524;13.340;2024-01-25T12:35:51;9.40;99.90
50067;DHT22;35952;52.524;13.340;2024-01-25T12:38:17;9.40;99.90
50067;DHT22;35952;52.524;13.340;2024-01-25T12:40:47;9.30;99.90
50067;DHT22;35952;52.524;13.340;2024-01-25T12:43:13;9.40;99.90
50067;DHT22;35952;52.524;13.340;2024-01-25T12:45:39;9.30;99.90
50067;DHT22;35952;52.524;13.340;2024-01-25T12:48:05;9.40;99.90
50067;DHT22;35952;52.524;13.340;2024-01-25T12:50:32;9.40;99.90
50067;DHT22;35952;52.524;13.340;2024-01-25T12:52:57;9.40;99.90
50067;DHT22;35952;52.524;13.340;2024-01-25T12:55:24;9.40;99.90
50067;DHT22;35952;52.524;13.340;2024-01-25T12:57:50;9.40;99.90
50067;DHT22;35952;52.524;13.340;2024-01-25T13:00:16;9.40;99.90
50067;DHT22;35952;52.524;13.340;2024-01-25T13:02:41;9.50;99.90
50067;DHT22;35952;52.524;13.340;2024-01-25T13:05:07;9.50;99.90
50067;DHT22;35952;52.524;13.340;2024-01-25T13:07:33;9.50;99.90
50067;DHT22;35952;52.524;13.340;2024-01-25T13:09:58;9.50;99.90
50067;DHT22;35952;52.524;13.340;2024-01-25T13:12:24;9.50;99.90
50067;DHT22;35952;52.524;13.340;2024-01-25T13:14:49;9.50;99.90
50067;DHT22;35952;52.524;13.340;2024-01-25T13:17:15;9.50;99.90
50067;DHT22;35952;52.524;13.340;2024-01-25T13:19:40;9.50;99.90
50067;DHT22;35952;52.524;13.340;2024-01-25T13:22:06;9.60;99.90
50067;DHT22;35952;52.524;13.340;2024-01-25T13:24:31;9.60;99.90
50067;DHT22;35952;52.524;13.340;2024-01-25T13:26:57;9.50;99.90
50067;DHT22;35952;52.524;13.340;2024-01-25T13:29:22;9.40;99.90
50067;DHT22;35952;52.524;13.340;2024-01-25T13:31:48;9.30;99.90
50067;DHT22;35952;52.524;13.340;2024-01-25T13:34:14;9.30;99.90
50067;DHT22;35952;52.524;13.340;2024-01-25T13:36:39;9.30;99.90
50067;DHT22;35952;52.524;13.340;2024-01-25T13:39:05;9.30;99.90
50067;DHT22;35952;52.524;13.340;2024-01-25T13:41:31;9.20;99.90
50067;DHT22;35952;52.524;13.340;2024-01-25T13:43:57;9.20;99.90
50067;DHT22;35952;52.524;13.340;2024-01-25T13:46:22;9.30;99.90
50067;DHT22;35952;52.524;13.340;2024-01-25T13:48:48;9.30;99.90
50067;DHT22;35952;52.524;13.340;2024-01-25T13:51:13;9.20;99.90
50067;DHT22;35952;52.524;13.340;2024-01-25T13:53:39;9.10;99.90
50067;DHT22;35952;52.524;13.340;2024-01-25T13:56:04;9.10;99.90
50067;DHT22;35952;52.524;13.340;2024-01-25T13:58:30;9.10;99.90
50067;DHT22;35952;52.524;13.340;2024-01-25T14:00:55;9.00;99.90
50067;DHT22;35952;52.524;13.340;2024-01-25T14:03:21;9.00;99.90
50067;DHT22;35952;52.524;13.340;2024-01-25T14:05:46;9.00;99.90
50067;DHT22;35952;52.524;13.340;2024-01-25T14:08:12;8.90;99.90
50067;DHT22;35952;52.524;13.340;2024-01-25T14:10:37;8.90;99.90
50067;DHT22;35952;52.524;13.340;2024-01-25T14:13:03;9.10;99.90
50067;DHT22;35952;52.524;13.340;2024-01-25T14:15:29;9.10;99.90
50067;DHT22;35952;52.524;13.340;2024-01-25T14:17:54;9.10;99.90
50067;DHT22;35952;52.524;13.340;2024-01-25T14:20:20;9.10;99.90
50067;DHT22;35952;52.524;13.340;2024-01-25T14:22:45;9.10;99.90
50067;DHT22;35952;52.524;13.340;2024-01-25T14:25:11;9.20;99.90
50067;DHT22;35952;52.524;13.340;2024-01-25T14:27:37;9.10;99.90
50067;DHT22;35952;52.524;13.340;2024-01-25T14:30:03;9.10;99.90
50067;DHT22;35952;52.524;13.340;2024-01-25T14:32:29;9.00;99.90
50067;DHT22;35952;52.524;13.340;2024-01-25T14:34:55;9.00;99.90
50067;DHT22;35952;52.524;13.340;2024-01-25T14:37:20;9.00;99.90
50067;DHT22;35952;52.524;13.340;2024-01-25T14:39:46;9.00;99.90
50067;DHT22;35952;52.524;13.340;2024-01-25T14:42:12;9.00;99.90
50067;DHT22;35952;52.524;13.340;2024-01-25T14:44:44;8.90;99.90
50067;DHT22;35952;52.524;13.340;2024-01-25T14:47:09;8.90;99.90
50067;DHT22;35952;52.524;13.340;2024-01-25T14:49:35;8.90;99.90
50067;DHT22;35952;52.524;13.340;2024-01-25T14:52:00;8.80;99.90
50067;DHT22;35952;52.524;13.340;2024-01-25T14:54:26;8.70;99.90
50067;DHT22;35952;52.524;13.340;2024-01-25T14:56:52;8.70;99.90
50067;DHT22;35952;52.524;13.340;2024-01-25T14:59:17;8.70;99.90
50067;DHT22;35952;52.524;13.340;2024-01-25T15:01:46;8.70;99.90
50067;DHT22;35952;52.524;13.340;2024-01-25T15:04:11;8.70;99.90
50067;DHT22;35952;52.524;13.340;2024-01-25T15:06:37;8.60;99.90
50067;DHT22;35952;52.524;13.340;2024-01-25T15:09:02;8.60;99.90
50067;DHT22;35952;52.524;13.340;2024-01-25T15:11:28;8.60;99.90
50067;DHT22;35952;52.524;13.340;2024-01-25T15:13:53;8.60;99.90
50067;DHT22;35952;52.524;13.340;2024-01-25T15:16:19;8.50;99.90
50067;DHT22;35952;52.524;13.340;2024-01-25T15:18:44;8.50;99.90
50067;DHT22;35952;52.524;13.340;2024-01-25T15:21:10;8.50;99.90
50067;DHT22;35952;52.524;13.340;2024-01-25T15:23:35;8.50;99.90